sensor_id;sensor_type;location;lat;lon;timestamp;temperature;humidity
26336;DHT22;14047;50.936;4.654;2023-07-13T00:01:59;16.40;99.90
26336;DHT22;14047;50.936;4.654;2023-07-13T00:04:25;16.40;99.90
26336;DHT22;14047;50.936;4.654;2023-07-13T00:06:52;16.40;99.90
26336;DHT22;14047;50.936;4.654;2023-07-13T00:09:19;16.30;99.90
26336;DHT22;14047;50.936;4.654;2023-07-13T00:11:49;16.30;99.90
26336;DHT22;14047;50.936;4.654;2023-07-13T00:14:16;16.30;99.90
26336;DHT22;14047;50.936;4.654;2023-07-13T00:16:42;16.20;99.90
26336;DHT22;14047;50.936;4.654;2023-07-13T00:19:10;16.10;99.90
26336;DHT22;14047;50.936;4.654;2023-07-13T00:21:40;16.20;99.90
26336;DHT22;14047;50.936;4.654;2023-07-13T00:24:08;16.20;99.90
26336;DHT22;14047;50.936;4.654;2023-07-13T00:26:38;16.20;99.90
26336;DHT22;14047;50.936;4.654;2023-07-13T00:29:05;16.10;99.90
26336;DHT22;14047;50.936;4.654;2023-07-13T00:31:35;16.10;99.90
26336;DHT22;14047;50.936;4.654;2023-07-13T00:34:02;16.10;99.90
26336;DHT22;14047;50.936;4.654;2023-07-13T00:36:28;16.10;99.90
26336;DHT22;14047;50.936;4.654;2023-07-13T00:38:56;15.90;99.90
26336;DHT22;14047;50.936;4.654;2023-07-13T00:41:24;15.90;99.90
26336;DHT22;14047;50.936;4.654;2023-07-13T00:43:51;15.90;99.90
26336;DHT22;14047;50.936;4.654;2023-07-13T00:46:29;15.90;99.90
26336;DHT22;14047;50.936;4.654;2023-07-13T00:48:58;15.80;99.90
26336;DHT22;14047;50.936;4.654;2023-07-13T00:51:31;15.80;99.90
26336;DHT22;14047;50.936;4.654;2023-07-13T00:53:59;15.90;99.90
26336;DHT22;14047;50.936;4.654;2023-07-13T00:56:26;16.10;99.90
26336;DHT22;14047;50.936;4.654;2023-07-13T00:58:54;16.20;99.90
26336;DHT22;14047;50.936;4.654;2023-07-13T01:01:21;16.30;99.90
26336;DHT22;14047;50.936;4.654;2023-07-13T01:03:47;16.30;99.90
26336;DHT22;14047;50.936;4.654;2023-07-13T01:06:13;16.30;99.90
26336;DHT22;14047;50.936;4.654;2023-07-13T01:08:39;16.20;99.90
26336;DHT22;14047;50.936;4.654;2023-07-13T01:11:05;16.20;99.90
26336;DHT22;14047;50.936;4.654;2023-07-13T01:13:34;16.20;99.90
26336;DHT22;14047;50.936;4.654;2023-07-13T01:16:04;16.10;99.90
26336;DHT22;14047;50.936;4.654;2023-07-13T01:18:32;16.20;99.90
26336;DHT22;14047;50.936;4.654;2023-07-13T01:21:01;16.30;99.90
26336;DHT22;14047;50.936;4.654;2023-07-13T01:23:28;16.30;99.90
26336;DHT22;14047;50.936;4.654;2023-07-13T01:25:55;16.40;99.90
26336;DHT22;14047;50.936;4.654;2023-07-13T01:28:25;16.40;99.90
26336;DHT22;14047;50.936;4.654;2023-07-13T01:30:54;16.50;99.90
26336;DHT22;14047;50.936;4.654;2023-07-13T01:33:20;16.50;99.90
26336;DHT22;14047;50.936;4.654;2023-07-13T01:35:47;16.60;99.90
26336;DHT22;14047;50.936;4.654;2023-07-13T01:38:17;16.60;99.90
26336;DHT22;14047;50.936;4.654;2023-07-13T01:40:44;16.60;99.90
26336;DHT22;14047;50.936;4.654;2023-07-13T01:43:10;16.60;99.90
26336;DHT22;14047;50.936;4.654;2023-07-13T01:45:37;16.60;99.90
26336;DHT22;14047;50.936;4.654;2023-07-13T01:48:03;16.60;99.90
26336;DHT22;14047;50.936;4.654;2023-07-13T01:50:30;16.60;99.90
26336;DHT22;14047;50.936;4.654;2023-07-13T01:52:57;16.60;99.90
26336;DHT22;14047;50.936;4.654;2023-07-13T01:55:23;16.60;99.90
26336;DHT22;14047;50.936;4.654;2023-07-13T01:57:49;16.60;99.90
26336;DHT22;14047;50.936;4.654;2023-07-13T02:00:15;16.60;99.90
26336;DHT22;14047;50.936;4.654;2023-07-13T02:02:42;16.50;99.90
26336;DHT22;14047;50.936;4.654;2023-07-13T02:05:10;16.60;99.90
26336;DHT22;14047;50.936;4.654;2023-07-13T02:07:36;16.60;99.90
26336;DHT22;14047;50.936;4.654;2023-07-13T02:10:05;16.50;99.90
26336;DHT22;14047;50.936;4.654;2023-07-13T02:12:31;16.50;99.90
26336;DHT22;14047;50.936;4.654;2023-07-13T02:14:56;16.40;99.90
26336;DHT22;14047;50.936;4.654;2023-07-13T02:17:22;16.50;99.90
26336;DHT22;14047;50.936;4.654;2023-07-13T02:19:49;16.50;99.90
26336;DHT22;14047;50.936;4.654;2023-07-13T02:22:14;16.50;99.90
26336;DHT22;14047;50.936;4.654;2023-07-13T02:24:40;16.70;99.90
26336;DHT22;14047;50.936;4.654;2023-07-13T02:27:06;16.80;99.90
26336;DHT22;14047;50.936;4.654;2023-07-13T02:29:32;16.70;99.90
26336;DHT22;14047;50.936;4.654;2023-07-13T02:31:58;16.70;99.90
26336;DHT22;14047;50.936;4.654;2023-07-13T02:34:24;16.90;99.90
26336;DHT22;14047;50.936;4.654;2023-07-13T02:36:50;16.90;99.90
26336;DHT22;14047;50.936;4.654;2023-07-13T02:39:16;16.90;99.90
26336;DHT22;14047;50.936;4.654;2023-07-13T02:41:42;17.00;99.90
26336;DHT22;14047;50.936;4.654;2023-07-13T02:44:08;17.00;99.90
26336;DHT22;14047;50.936;4.654;2023-07-13T02:46:36;16.70;99.90
26336;DHT22;14047;50.936;4.654;2023-07-13T02:49:03;16.70;99.90
26336;DHT22;14047;50.936;4.654;2023-07-13T02:51:31;16.80;99.90
26336;DHT22;14047;50.936;4.654;2023-07-13T02:54:04;16.70;99.90
26336;DHT22;14047;50.936;4.654;2023-07-13T02:56:33;16.80;99.90
26336;DHT22;14047;50.936;4.654;2023-07-13T02:58:59;16.90;99.90
26336;DHT22;14047;50.936;4.654;2023-07-13T03:01:25;16.70;99.90
26336;DHT22;14047;50.936;4.654;2023-07-13T03:03:52;16.80;99.90
26336;DHT22;14047;50.936;4.654;2023-07-13T03:06:19;16.70;99.90
26336;DHT22;14047;50.936;4.654;2023-07-13T03:08:50;16.70;99.90
26336;DHT22;14047;50.936;4.654;2023-07-13T03:11:19;16.90;99.90
26336;DHT22;14047;50.936;4.654;2023-07-13T03:13:49;17.10;99.90
26336;DHT22;14047;50.936;4.654;2023-07-13T03:16:15;17.20;99.90
26336;DHT22;14047;50.936;4.654;2023-07-13T03:18:45;17.10;99.90
26336;DHT22;14047;50.936;4.654;2023-07-13T03:21:12;17.30;99.90
26336;DHT22;14047;50.936;4.654;2023-07-13T03:23:39;17.10;99.90
26336;DHT22;14047;50.936;4.654;2023-07-13T03:26:14;17.10;99.90
26336;DHT22;14047;50.936;4.654;2023-07-13T03:28:41;17.20;99.90
26336;DHT22;14047;50.936;4.654;2023-07-13T03:31:17;17.30;99.90
26336;DHT22;14047;50.936;4.654;2023-07-13T03:33:44;17.20;99.90
26336;DHT22;14047;50.936;4.654;2023-07-13T03:36:15;17.30;99.90
26336;DHT22;14047;50.936;4.654;2023-07-13T03:38:53;17.20;99.90
26336;DHT22;14047;50.936;4.654;2023-07-13T03:41:23;17.10;99.90
26336;DHT22;14047;50.936;4.654;2023-07-13T03:43:51;17.10;99.90
26336;DHT22;14047;50.936;4.654;2023-07-13T03:46:20;17.20;99.90
26336;DHT22;14047;50.936;4.654;2023-07-13T03:48:47;17.20;99.90
26336;DHT22;14047;50.936;4.654;2023-07-13T03:51:15;17.20;99.90
26336;DHT22;14047;50.936;4.654;2023-07-13T03:53:44;17.40;99.90
26336;DHT22;14047;50.936;4.654;2023-07-13T03:56:13;17.50;99.90
26336;DHT22;14047;50.936;4.654;2023-07-13T03:58:44;17.20;99.90
26336;DHT22;14047;50.936;4.654;2023-07-13T04:01:17;17.20;99.90
26336;DHT22;14047;50.936;4.654;2023-07-13T04:03:44;17.10;99.90
26336;DHT22;14047;50.936;4.654;2023-07-13T04:06:21;17.00;99.90
26336;DHT22;14047;50.936;4.654;2023-07-13T04:08:59;17.00;99.90
26336;DHT22;14047;50.936;4.654;2023-07-13T04:11:28;17.00;99.90
26336;DHT22;14047;50.936;4.654;2023-07-13T04:13:54;17.10;99.90
26336;DHT22;14047;50.936;4.654;2023-07-13T04:16:20;17.00;99.90
26336;DHT22;14047;50.936;4.654;2023-07-13T04:18:47;17.00;99.90
26336;DHT22;14047;50.936;4.654;2023-07-13T04:21:14;16.90;99.90
26336;DHT22;14047;50.936;4.654;2023-07-13T04:23:40;16.80;99.90
26336;DHT22;14047;50.936;4.654;2023-07-13T04:26:07;16.70;99.90
26336;DHT22;14047;50.936;4.654;2023-07-13T04:28:33;16.70;99.90
26336;DHT22;14047;50.936;4.654;2023-07-13T04:30:59;16.70;99.90
26336;DHT22;14047;50.936;4.654;2023-07-13T04:33:26;16.50;99.90
26336;DHT22;14047;50.936;4.654;2023-07-13T04:35:54;16.60;99.90
26336;DHT22;14047;50.936;4.654;2023-07-13T04:38:29;16.60;99.90
26336;DHT22;14047;50.936;4.654;2023-07-13T04:41:00;16.70;99.90
26336;DHT22;14047;50.936;4.654;2023-07-13T04:43:27;16.70;99.90
26336;DHT22;14047;50.936;4.654;2023-07-13T04:45:53;16.70;99.90
26336;DHT22;14047;50.936;4.654;2023-07-13T04:48:20;16.50;99.90
26336;DHT22;14047;50.936;4.654;2023-07-13T04:50:46;16.60;99.90
26336;DHT22;14047;50.936;4.654;2023-07-13T04:53:13;16.60;99.90
26336;DHT22;14047;50.936;4.654;2023-07-13T04:55:39;16.70;99.90
26336;DHT22;14047;50.936;4.654;2023-07-13T04:58:06;16.70;99.90
26336;DHT22;14047;50.936;4.654;2023-07-13T05:00:32;16.80;99.90
26336;DHT22;14047;50.936;4.654;2023-07-13T05:02:58;16.70;99.90
26336;DHT22;14047;50.936;4.654;2023-07-13T05:05:25;16.60;99.90
26336;DHT22;14047;50.936;4.654;2023-07-13T05:07:52;16.60;99.90
26336;DHT22;14047;50.936;4.654;2023-07-13T05:10:18;16.50;99.90
26336;DHT22;14047;50.936;4.654;2023-07-13T05:12:45;16.60;99.90
26336;DHT22;14047;50.936;4.654;2023-07-13T05:15:11;16.70;99.90
26336;DHT22;14047;50.936;4.654;2023-07-13T05:17:37;16.90;99.90
26336;DHT22;14047;50.936;4.654;2023-07-13T05:20:06;17.00;99.90
26336;DHT22;14047;50.936;4.654;2023-07-13T05:22:32;17.00;99.90
26336;DHT22;14047;50.936;4.654;2023-07-13T05:25:02;16.90;99.90
26336;DHT22;14047;50.936;4.654;2023-07-13T05:27:29;16.90;99.90
26336;DHT22;14047;50.936;4.654;2023-07-13T05:29:55;16.90;99.90
26336;DHT22;14047;50.936;4.654;2023-07-13T05:32:21;17.10;99.90
26336;DHT22;14047;50.936;4.654;2023-07-13T05:34:46;17.20;99.90
26336;DHT22;14047;50.936;4.654;2023-07-13T05:37:12;17.20;99.90
26336;DHT22;14047;50.936;4.654;2023-07-13T05:39:39;17.10;99.90
26336;DHT22;14047;50.936;4.654;2023-07-13T05:42:05;17.10;99.90
26336;DHT22;14047;50.936;4.654;2023-07-13T05:44:31;17.30;99.90
26336;DHT22;14047;50.936;4.654;2023-07-13T05:46:57;17.30;99.90
26336;DHT22;14047;50.936;4.654;2023-07-13T05:49:23;17.30;99.90
26336;DHT22;14047;50.936;4.654;2023-07-13T05:51:49;17.40;99.90
26336;DHT22;14047;50.936;4.654;2023-07-13T05:54:15;17.40;99.90
26336;DHT22;14047;50.936;4.654;2023-07-13T05:56:41;17.50;99.90
26336;DHT22;14047;50.936;4.654;2023-07-13T05:59:07;17.60;99.90
26336;DHT22;14047;50.936;4.654;2023-07-13T06:01:33;17.70;99.90
26336;DHT22;14047;50.936;4.654;2023-07-13T06:03:59;17.70;99.90
26336;DHT22;14047;50.936;4.654;2023-07-13T06:06:25;17.80;99.90
26336;DHT22;14047;50.936;4.654;2023-07-13T06:08:51;17.90;99.90
26336;DHT22;14047;50.936;4.654;2023-07-13T06:11:23;18.00;99.90
26336;DHT22;14047;50.936;4.654;2023-07-13T06:13:49;18.10;99.90
26336;DHT22;14047;50.936;4.654;2023-07-13T06:16:16;18.10;99.90
26336;DHT22;14047;50.936;4.654;2023-07-13T06:18:42;18.20;99.90
26336;DHT22;14047;50.936;4.654;2023-07-13T06:21:18;18.10;99.90
26336;DHT22;14047;50.936;4.654;2023-07-13T06:23:45;18.00;99.90
26336;DHT22;14047;50.936;4.654;2023-07-13T06:26:13;18.10;99.90
26336;DHT22;14047;50.936;4.654;2023-07-13T06:28:39;18.20;99.90
26336;DHT22;14047;50.936;4.654;2023-07-13T06:31:09;18.20;99.90
26336;DHT22;14047;50.936;4.654;2023-07-13T06:33:35;18.20;99.90
26336;DHT22;14047;50.936;4.654;2023-07-13T06:36:05;18.40;99.90
26336;DHT22;14047;50.936;4.654;2023-07-13T06:38:32;18.50;99.90
26336;DHT22;14047;50.936;4.654;2023-07-13T06:40:58;18.60;99.90
26336;DHT22;14047;50.936;4.654;2023-07-13T06:43:24;18.70;99.90
26336;DHT22;14047;50.936;4.654;2023-07-13T06:45:51;18.80;99.90
26336;DHT22;14047;50.936;4.654;2023-07-13T06:48:18;18.90;99.90
26336;DHT22;14047;50.936;4.654;2023-07-13T06:50:45;19.10;99.90
26336;DHT22;14047;50.936;4.654;2023-07-13T06:53:12;19.10;99.90
26336;DHT22;14047;50.936;4.654;2023-07-13T06:55:38;19.20;99.90
26336;DHT22;14047;50.936;4.654;2023-07-13T06:58:05;19.20;99.90
26336;DHT22;14047;50.936;4.654;2023-07-13T07:00:31;19.20;99.90
26336;DHT22;14047;50.936;4.654;2023-07-13T07:02:57;19.40;99.90
26336;DHT22;14047;50.936;4.654;2023-07-13T07:05:23;19.50;99.90
26336;DHT22;14047;50.936;4.654;2023-07-13T07:07:50;19.50;99.90
26336;DHT22;14047;50.936;4.654;2023-07-13T07:10:18;19.60;99.90
26336;DHT22;14047;50.936;4.654;2023-07-13T07:12:44;19.60;99.90
26336;DHT22;14047;50.936;4.654;2023-07-13T07:15:10;19.80;99.90
26336;DHT22;14047;50.936;4.654;2023-07-13T07:17:35;19.90;99.90
26336;DHT22;14047;50.936;4.654;2023-07-13T07:20:02;19.80;99.90
26336;DHT22;14047;50.936;4.654;2023-07-13T07:22:29;19.90;99.90
26336;DHT22;14047;50.936;4.654;2023-07-13T07:24:56;19.90;99.90
26336;DHT22;14047;50.936;4.654;2023-07-13T07:27:23;20.00;99.90
26336;DHT22;14047;50.936;4.654;2023-07-13T07:29:49;20.10;99.90
26336;DHT22;14047;50.936;4.654;2023-07-13T07:32:15;20.10;99.90
26336;DHT22;14047;50.936;4.654;2023-07-13T07:34:42;20.10;99.90
26336;DHT22;14047;50.936;4.654;2023-07-13T07:37:11;20.10;99.90
26336;DHT22;14047;50.936;4.654;2023-07-13T07:39:37;20.10;99.90
26336;DHT22;14047;50.936;4.654;2023-07-13T07:42:04;20.20;99.90
26336;DHT22;14047;50.936;4.654;2023-07-13T07:44:33;20.30;99.90
26336;DHT22;14047;50.936;4.654;2023-07-13T07:46:59;20.20;99.90
26336;DHT22;14047;50.936;4.654;2023-07-13T07:49:26;20.20;99.90
26336;DHT22;14047;50.936;4.654;2023-07-13T07:51:52;20.20;99.90
26336;DHT22;14047;50.936;4.654;2023-07-13T07:54:18;20.20;99.90
26336;DHT22;14047;50.936;4.654;2023-07-13T07:56:44;20.10;99.90
26336;DHT22;14047;50.936;4.654;2023-07-13T07:59:10;20.20;99.90
26336;DHT22;14047;50.936;4.654;2023-07-13T08:01:36;20.30;99.90
26336;DHT22;14047;50.936;4.654;2023-07-13T08:04:03;20.40;99.90
26336;DHT22;14047;50.936;4.654;2023-07-13T08:06:29;20.40;99.90
26336;DHT22;14047;50.936;4.654;2023-07-13T08:08:55;20.40;99.90
26336;DHT22;14047;50.936;4.654;2023-07-13T08:11:22;20.40;99.90
26336;DHT22;14047;50.936;4.654;2023-07-13T08:13:49;20.50;99.90
26336;DHT22;14047;50.936;4.654;2023-07-13T08:16:15;20.60;99.90
26336;DHT22;14047;50.936;4.654;2023-07-13T08:18:41;20.60;99.90
26336;DHT22;14047;50.936;4.654;2023-07-13T08:21:09;20.50;99.90
26336;DHT22;14047;50.936;4.654;2023-07-13T08:23:35;20.50;99.90
26336;DHT22;14047;50.936;4.654;2023-07-13T08:26:02;20.70;99.90
26336;DHT22;14047;50.936;4.654;2023-07-13T08:28:29;20.80;99.90
26336;DHT22;14047;50.936;4.654;2023-07-13T08:30:55;20.70;99.90
26336;DHT22;14047;50.936;4.654;2023-07-13T08:33:25;20.70;99.90
26336;DHT22;14047;50.936;4.654;2023-07-13T08:35:51;21.10;99.90
26336;DHT22;14047;50.936;4.654;2023-07-13T08:38:17;21.50;99.90
26336;DHT22;14047;50.936;4.654;2023-07-13T08:40:45;21.50;99.90
26336;DHT22;14047;50.936;4.654;2023-07-13T08:43:20;21.50;99.90
26336;DHT22;14047;50.936;4.654;2023-07-13T08:48:35;21.10;99.90
26336;DHT22;14047;50.936;4.654;2023-07-13T08:51:50;20.90;99.90
26336;DHT22;14047;50.936;4.654;2023-07-13T08:54:28;21.00;99.90
26336;DHT22;14047;50.936;4.654;2023-07-13T08:56:57;21.20;99.90
26336;DHT22;14047;50.936;4.654;2023-07-13T08:59:27;21.20;99.90
26336;DHT22;14047;50.936;4.654;2023-07-13T09:04:56;20.90;99.90
26336;DHT22;14047;50.936;4.654;2023-07-13T09:10:25;20.50;99.90
26336;DHT22;14047;50.936;4.654;2023-07-13T09:15:52;20.80;99.90
26336;DHT22;14047;50.936;4.654;2023-07-13T09:18:31;20.80;99.90
26336;DHT22;14047;50.936;4.654;2023-07-13T09:23:36;21.40;99.90
26336;DHT22;14047;50.936;4.654;2023-07-13T09:26:13;21.50;99.90
26336;DHT22;14047;50.936;4.654;2023-07-13T09:28:47;21.30;99.90
26336;DHT22;14047;50.936;4.654;2023-07-13T09:31:36;21.30;99.90
26336;DHT22;14047;50.936;4.654;2023-07-13T09:34:08;21.60;99.90
26336;DHT22;14047;50.936;4.654;2023-07-13T09:36:35;22.10;99.90
26336;DHT22;14047;50.936;4.654;2023-07-13T09:39:25;22.40;99.90
26336;DHT22;14047;50.936;4.654;2023-07-13T09:42:14;22.60;99.90
26336;DHT22;14047;50.936;4.654;2023-07-13T09:47:39;22.70;99.90
26336;DHT22;14047;50.936;4.654;2023-07-13T09:50:14;22.70;99.90
26336;DHT22;14047;50.936;4.654;2023-07-13T09:52:46;22.50;99.90
26336;DHT22;14047;50.936;4.654;2023-07-13T09:55:39;22.30;99.90
26336;DHT22;14047;50.936;4.654;2023-07-13T09:58:24;22.10;99.90
26336;DHT22;14047;50.936;4.654;2023-07-13T10:01:01;22.00;99.90
26336;DHT22;14047;50.936;4.654;2023-07-13T10:03:31;22.00;99.90
26336;DHT22;14047;50.936;4.654;2023-07-13T10:06:17;22.10;99.90
26336;DHT22;14047;50.936;4.654;2023-07-13T10:08:45;22.40;99.90
26336;DHT22;14047;50.936;4.654;2023-07-13T10:11:21;22.80;99.90
26336;DHT22;14047;50.936;4.654;2023-07-13T10:13:56;23.10;99.90
26336;DHT22;14047;50.936;4.654;2023-07-13T10:16:25;23.20;99.90
26336;DHT22;14047;50.936;4.654;2023-07-13T10:21:54;23.20;99.90
26336;DHT22;14047;50.936;4.654;2023-07-13T10:24:33;22.90;99.90
26336;DHT22;14047;50.936;4.654;2023-07-13T10:27:17;22.70;99.90
26336;DHT22;14047;50.936;4.654;2023-07-13T10:29:51;22.80;99.90
26336;DHT22;14047;50.936;4.654;2023-07-13T10:32:20;23.20;99.90
26336;DHT22;14047;50.936;4.654;2023-07-13T10:34:48;23.40;99.90
26336;DHT22;14047;50.936;4.654;2023-07-13T10:37:19;23.40;99.90
26336;DHT22;14047;50.936;4.654;2023-07-13T10:39:47;23.30;99.90
26336;DHT22;14047;50.936;4.654;2023-07-13T10:42:18;23.30;99.90
26336;DHT22;14047;50.936;4.654;2023-07-13T10:44:48;23.10;99.90
26336;DHT22;14047;50.936;4.654;2023-07-13T10:47:15;23.20;99.90
26336;DHT22;14047;50.936;4.654;2023-07-13T10:49:44;23.30;99.90
26336;DHT22;14047;50.936;4.654;2023-07-13T10:55:30;23.70;99.90
26336;DHT22;14047;50.936;4.654;2023-07-13T10:58:11;23.90;99.90
26336;DHT22;14047;50.936;4.654;2023-07-13T11:01:00;23.80;99.90
26336;DHT22;14047;50.936;4.654;2023-07-13T11:03:30;24.00;99.90
26336;DHT22;14047;50.936;4.654;2023-07-13T11:08:58;24.00;99.90
26336;DHT22;14047;50.936;4.654;2023-07-13T11:11:33;23.40;99.90
26336;DHT22;14047;50.936;4.654;2023-07-13T11:14:02;23.60;99.90
26336;DHT22;14047;50.936;4.654;2023-07-13T11:16:42;23.80;99.90
26336;DHT22;14047;50.936;4.654;2023-07-13T11:19:26;23.80;99.90
26336;DHT22;14047;50.936;4.654;2023-07-13T11:22:11;23.70;99.90
26336;DHT22;14047;50.936;4.654;2023-07-13T11:27:34;22.90;99.90
26336;DHT22;14047;50.936;4.654;2023-07-13T11:30:24;22.20;99.90
26336;DHT22;14047;50.936;4.654;2023-07-13T11:33:03;21.70;99.90
26336;DHT22;14047;50.936;4.654;2023-07-13T11:35:37;21.40;99.90
26336;DHT22;14047;50.936;4.654;2023-07-13T11:38:21;21.40;99.90
26336;DHT22;14047;50.936;4.654;2023-07-13T11:40:51;21.50;99.90
26336;DHT22;14047;50.936;4.654;2023-07-13T11:43:19;21.90;99.90
26336;DHT22;14047;50.936;4.654;2023-07-13T11:45:45;22.20;99.90
26336;DHT22;14047;50.936;4.654;2023-07-13T11:48:19;22.30;99.90
26336;DHT22;14047;50.936;4.654;2023-07-13T11:50:59;22.50;99.90
26336;DHT22;14047;50.936;4.654;2023-07-13T11:53:28;22.60;99.90
26336;DHT22;14047;50.936;4.654;2023-07-13T11:55:55;22.80;99.90
26336;DHT22;14047;50.936;4.654;2023-07-13T11:58:24;23.00;99.90
26336;DHT22;14047;50.936;4.654;2023-07-13T12:00:51;23.10;99.90
26336;DHT22;14047;50.936;4.654;2023-07-13T12:03:21;23.00;99.90
26336;DHT22;14047;50.936;4.654;2023-07-13T12:05:57;22.90;99.90
26336;DHT22;14047;50.936;4.654;2023-07-13T12:08:24;22.50;99.90
26336;DHT22;14047;50.936;4.654;2023-07-13T12:11:00;22.30;99.90
26336;DHT22;14047;50.936;4.654;2023-07-13T12:13:36;22.30;99.90
26336;DHT22;14047;50.936;4.654;2023-07-13T12:16:02;22.40;99.90
26336;DHT22;14047;50.936;4.654;2023-07-13T12:18:33;22.30;99.90
26336;DHT22;14047;50.936;4.654;2023-07-13T12:21:00;22.10;99.90
26336;DHT22;14047;50.936;4.654;2023-07-13T12:23:32;21.60;99.90
26336;DHT22;14047;50.936;4.654;2023-07-13T12:26:01;21.40;99.90
26336;DHT22;14047;50.936;4.654;2023-07-13T12:28:45;21.40;99.90
26336;DHT22;14047;50.936;4.654;2023-07-13T12:34:10;21.80;99.90
26336;DHT22;14047;50.936;4.654;2023-07-13T12:41:43;20.50;99.90
26336;DHT22;14047;50.936;4.654;2023-07-13T12:44:16;20.00;99.90
26336;DHT22;14047;50.936;4.654;2023-07-13T12:47:04;19.80;99.90
26336;DHT22;14047;50.936;4.654;2023-07-13T12:49:32;19.50;99.90
26336;DHT22;14047;50.936;4.654;2023-07-13T12:52:03;19.40;99.90
26336;DHT22;14047;50.936;4.654;2023-07-13T12:54:30;19.50;99.90
26336;DHT22;14047;50.936;4.654;2023-07-13T12:56:58;19.70;99.90
26336;DHT22;14047;50.936;4.654;2023-07-13T12:59:29;19.90;99.90
26336;DHT22;14047;50.936;4.654;2023-07-13T13:01:55;20.00;99.90
26336;DHT22;14047;50.936;4.654;2023-07-13T13:04:21;19.80;99.90
26336;DHT22;14047;50.936;4.654;2023-07-13T13:06:49;19.50;99.90
26336;DHT22;14047;50.936;4.654;2023-07-13T13:09:16;19.10;99.90
26336;DHT22;14047;50.936;4.654;2023-07-13T13:11:44;18.80;99.90
26336;DHT22;14047;50.936;4.654;2023-07-13T13:14:10;18.60;99.90
26336;DHT22;14047;50.936;4.654;2023-07-13T13:16:49;18.40;99.90
26336;DHT22;14047;50.936;4.654;2023-07-13T13:19:24;18.30;99.90
26336;DHT22;14047;50.936;4.654;2023-07-13T13:21:50;18.30;99.90
26336;DHT22;14047;50.936;4.654;2023-07-13T13:24:20;18.40;99.90
26336;DHT22;14047;50.936;4.654;2023-07-13T13:26:47;18.50;99.90
26336;DHT22;14047;50.936;4.654;2023-07-13T13:29:20;18.60;99.90
26336;DHT22;14047;50.936;4.654;2023-07-13T13:31:46;18.70;99.90
26336;DHT22;14047;50.936;4.654;2023-07-13T13:34:14;18.90;99.90
26336;DHT22;14047;50.936;4.654;2023-07-13T13:36:41;19.10;99.90
26336;DHT22;14047;50.936;4.654;2023-07-13T13:39:34;19.30;99.90
26336;DHT22;14047;50.936;4.654;2023-07-13T13:42:01;19.40;99.90
26336;DHT22;14047;50.936;4.654;2023-07-13T13:44:27;19.70;99.90
26336;DHT22;14047;50.936;4.654;2023-07-13T13:46:54;20.00;99.90
26336;DHT22;14047;50.936;4.654;2023-07-13T13:49:26;20.20;99.90
26336;DHT22;14047;50.936;4.654;2023-07-13T13:51:53;20.50;99.90
26336;DHT22;14047;50.936;4.654;2023-07-13T13:54:21;20.70;99.90
26336;DHT22;14047;50.936;4.654;2023-07-13T13:56:50;20.80;99.90
26336;DHT22;14047;50.936;4.654;2023-07-13T13:59:16;21.00;99.90
26336;DHT22;14047;50.936;4.654;2023-07-13T14:01:44;20.90;99.90
26336;DHT22;14047;50.936;4.654;2023-07-13T14:04:28;20.80;99.90
26336;DHT22;14047;50.936;4.654;2023-07-13T14:06:54;21.00;99.90
26336;DHT22;14047;50.936;4.654;2023-07-13T14:09:20;21.00;99.90
26336;DHT22;14047;50.936;4.654;2023-07-13T14:11:47;21.30;99.90
26336;DHT22;14047;50.936;4.654;2023-07-13T14:14:21;21.60;99.90
26336;DHT22;14047;50.936;4.654;2023-07-13T14:16:49;22.30;99.90
26336;DHT22;14047;50.936;4.654;2023-07-13T14:19:19;23.00;99.90
26336;DHT22;14047;50.936;4.654;2023-07-13T14:21:45;23.80;99.90
26336;DHT22;14047;50.936;4.654;2023-07-13T14:24:13;24.20;99.90
26336;DHT22;14047;50.936;4.654;2023-07-13T14:26:40;24.90;99.90
26336;DHT22;14047;50.936;4.654;2023-07-13T14:29:15;25.60;99.90
26336;DHT22;14047;50.936;4.654;2023-07-13T14:31:43;26.70;99.90
26336;DHT22;14047;50.936;4.654;2023-07-13T14:34:13;27.40;99.90
26336;DHT22;14047;50.936;4.654;2023-07-13T14:36:42;27.70;99.90
26336;DHT22;14047;50.936;4.654;2023-07-13T14:39:21;27.50;99.90
26336;DHT22;14047;50.936;4.654;2023-07-13T14:41:50;27.20;99.90
26336;DHT22;14047;50.936;4.654;2023-07-13T14:44:19;26.70;99.90
26336;DHT22;14047;50.936;4.654;2023-07-13T14:46:46;26.90;99.90
26336;DHT22;14047;50.936;4.654;2023-07-13T14:51:51;26.10;99.90
26336;DHT22;14047;50.936;4.654;2023-07-13T14:54:17;26.50;99.90
26336;DHT22;14047;50.936;4.654;2023-07-13T14:56:43;26.60;99.90
26336;DHT22;14047;50.936;4.654;2023-07-13T14:59:09;26.80;99.90
26336;DHT22;14047;50.936;4.654;2023-07-13T15:01:36;27.00;99.90
26336;DHT22;14047;50.936;4.654;2023-07-13T15:04:02;27.30;99.90
26336;DHT22;14047;50.936;4.654;2023-07-13T15:06:29;27.20;99.90
26336;DHT22;14047;50.936;4.654;2023-07-13T15:08:57;26.80;99.90
26336;DHT22;14047;50.936;4.654;2023-07-13T15:11:23;26.30;99.90
26336;DHT22;14047;50.936;4.654;2023-07-13T15:13:49;26.30;99.90
26336;DHT22;14047;50.936;4.654;2023-07-13T15:16:24;26.20;99.90
26336;DHT22;14047;50.936;4.654;2023-07-13T15:18:50;26.20;99.90
26336;DHT22;14047;50.936;4.654;2023-07-13T15:21:23;26.10;99.90
26336;DHT22;14047;50.936;4.654;2023-07-13T15:23:50;26.30;99.90
26336;DHT22;14047;50.936;4.654;2023-07-13T15:26:18;27.20;99.90
26336;DHT22;14047;50.936;4.654;2023-07-13T15:28:45;27.60;99.90
26336;DHT22;14047;50.936;4.654;2023-07-13T15:31:24;28.50;99.90
26336;DHT22;14047;50.936;4.654;2023-07-13T15:33:54;29.40;99.90
26336;DHT22;14047;50.936;4.654;2023-07-13T15:36:21;30.10;99.90
26336;DHT22;14047;50.936;4.654;2023-07-13T15:38:50;30.00;99.90
26336;DHT22;14047;50.936;4.654;2023-07-13T15:43:43;30.60;99.90
26336;DHT22;14047;50.936;4.654;2023-07-13T15:46:09;30.50;99.90
26336;DHT22;14047;50.936;4.654;2023-07-13T15:48:36;29.50;99.90
26336;DHT22;14047;50.936;4.654;2023-07-13T15:51:03;29.20;99.90
26336;DHT22;14047;50.936;4.654;2023-07-13T15:53:34;28.80;99.90
26336;DHT22;14047;50.936;4.654;2023-07-13T15:56:03;29.40;99.90
26336;DHT22;14047;50.936;4.654;2023-07-13T15:58:35;28.90;99.90
26336;DHT22;14047;50.936;4.654;2023-07-13T16:01:01;28.70;99.90
26336;DHT22;14047;50.936;4.654;2023-07-13T16:03:27;28.70;99.90
26336;DHT22;14047;50.936;4.654;2023-07-13T16:05:53;28.70;99.90
26336;DHT22;14047;50.936;4.654;2023-07-13T16:08:27;28.70;99.90
26336;DHT22;14047;50.936;4.654;2023-07-13T16:10:53;27.80;99.90
26336;DHT22;14047;50.936;4.654;2023-07-13T16:13:20;27.00;99.90
26336;DHT22;14047;50.936;4.654;2023-07-13T16:15:47;26.90;99.90
26336;DHT22;14047;50.936;4.654;2023-07-13T16:18:14;26.20;99.90
26336;DHT22;14047;50.936;4.654;2023-07-13T16:20:44;26.50;99.90
26336;DHT22;14047;50.936;4.654;2023-07-13T16:23:12;27.20;99.90
26336;DHT22;14047;50.936;4.654;2023-07-13T16:25:39;27.60;99.90